createdAt,value
2023-10-31T00:00:57.836Z,11.27786
2023-10-31T00:06:09.822Z,11.23029
2023-10-31T00:11:21.978Z,11.125
2023-10-31T00:16:34.187Z,11.00455
2023-10-31T00:21:46.545Z,10.82854
2023-10-31T00:26:58.513Z,10.72527
2023-10-31T00:32:10.663Z,10.69444
2023-10-31T00:37:22.821Z,10.57108
2023-10-31T00:42:34.840Z,10.31783
2023-10-31T00:47:46.870Z,10.14665
2023-10-31T00:52:59.001Z,9.976349
2023-10-31T00:58:11.006Z,9.854858
2023-10-31T01:03:23.134Z,9.67865
2023-10-31T01:08:35.197Z,9.421661
2023-10-31T01:13:47.323Z,9.180908
2023-10-31T01:18:59.332Z,8.910721
2023-10-31T01:24:11.339Z,8.65535
2023-10-31T01:29:23.298Z,8.479034
2023-10-31T01:34:35.382Z,8.419998
2023-10-31T01:39:47.685Z,8.654037
2023-10-31T01:44:59.797Z,8.926193
2023-10-31T01:50:11.806Z,9.15834
2023-10-31T01:55:23.782Z,9.270813
2023-10-31T02:00:35.746Z,9.304245
2023-10-31T02:05:47.770Z,9.351013
2023-10-31T02:10:59.784Z,9.367676
2023-10-31T02:16:12.022Z,9.307693
2023-10-31T02:21:24.133Z,9.237518
2023-10-31T02:26:36.182Z,9.204956
2023-10-31T02:26:48.175Z,9.203873
2023-10-31T02:32:00.275Z,9.162048
2023-10-31T02:37:12.412Z,9.06134
2023-10-31T02:42:24.521Z,9.056961
2023-10-31T02:47:36.747Z,9.099594
2023-10-31T02:52:48.762Z,9.195801
2023-10-31T02:58:00.736Z,9.250412
2023-10-31T03:03:12.881Z,9.314911
2023-10-31T03:08:25.147Z,9.382767
2023-10-31T03:13:37.271Z,9.349167
2023-10-31T03:18:49.268Z,9.278244
2023-10-31T03:24:01.436Z,9.209198
2023-10-31T03:29:13.423Z,9.086349
2023-10-31T03:34:25.390Z,8.978851
2023-10-31T03:39:37.498Z,8.88533
2023-10-31T03:44:49.589Z,8.817108
2023-10-31T03:50:01.681Z,8.721497
2023-10-31T03:55:13.790Z,8.671539
2023-10-31T04:00:26.012Z,8.630508
2023-10-31T04:05:38.022Z,8.595169
2023-10-31T04:10:50.011Z,8.675156
2023-10-31T04:16:01.982Z,8.709869
2023-10-31T04:21:14.068Z,8.669052
2023-10-31T04:26:28.581Z,8.66748
2023-10-31T04:31:44.170Z,8.622101
2023-10-31T04:36:56.790Z,8.590958
2023-10-31T04:42:08.985Z,8.581024
2023-10-31T04:47:21.130Z,8.587906
2023-10-31T04:52:33.202Z,8.537567
2023-10-31T04:57:45.341Z,8.523743
2023-10-31T05:02:57.502Z,8.484985
2023-10-31T05:08:10.048Z,8.42247
2023-10-31T05:13:22.135Z,8.323639
2023-10-31T05:18:34.089Z,8.178589
2023-10-31T05:23:46.169Z,8.008499
2023-10-31T05:28:58.141Z,7.814133
2023-10-31T05:34:10.774Z,7.665192
2023-10-31T05:39:22.766Z,7.632614
2023-10-31T05:44:34.865Z,7.682159
2023-10-31T05:49:46.852Z,7.756485
2023-10-31T05:49:58.952Z,7.754349
2023-10-31T05:55:11.052Z,7.805573
2023-10-31T06:00:23.189Z,7.808334
2023-10-31T06:05:38.385Z,7.780136
2023-10-31T06:10:50.500Z,7.698929
2023-10-31T06:16:02.588Z,7.755356
2023-10-31T06:21:14.824Z,7.793396
2023-10-31T06:26:26.987Z,7.772446
2023-10-31T06:31:39.159Z,7.796951
2023-10-31T06:36:51.247Z,7.855484
2023-10-31T06:42:03.246Z,7.955139
2023-10-31T06:47:15.452Z,8.084793
2023-10-31T06:52:27.434Z,8.188568
2023-10-31T07:02:59.788Z,8.383301
2023-10-31T07:08:11.996Z,8.511932
2023-10-31T07:13:24.172Z,8.600098
2023-10-31T07:18:36.149Z,8.703369
2023-10-31T07:23:48.109Z,8.81192
2023-10-31T07:29:00.236Z,8.976044
2023-10-31T07:34:12.492Z,9.103729
2023-10-31T07:39:24.472Z,9.163635
2023-10-31T07:44:36.440Z,9.226135
2023-10-31T07:49:48.932Z,9.2603
2023-10-31T07:55:01.028Z,9.342178
2023-10-31T08:00:13.105Z,9.359055
2023-10-31T08:05:25.248Z,9.365082
2023-10-31T08:10:37.384Z,9.442474
2023-10-31T08:16:01.718Z,9.335587
2023-10-31T08:21:13.778Z,9.600525
2023-10-31T08:26:25.824Z,9.498886
2023-10-31T08:31:37.800Z,9.4254
2023-10-31T08:36:50.277Z,9.263947
2023-10-31T08:42:02.767Z,9.089676
2023-10-31T08:47:14.759Z,9.168793
2023-10-31T08:52:26.739Z,9.203857
2023-10-31T08:57:38.892Z,9.221954
2023-10-31T09:02:51.115Z,9.12149
2023-10-31T09:08:03.241Z,9.014832
2023-10-31T09:13:15.254Z,9.249527
2023-10-31T09:18:27.352Z,9.035904
2023-10-31T09:23:39.305Z,9.158737
2023-10-31T09:28:51.395Z,8.951553
2023-10-31T09:34:03.437Z,9.044495
2023-10-31T09:39:15.647Z,8.958878
2023-10-31T09:44:27.634Z,9.43045
2023-10-31T09:49:40.377Z,9.190674
2023-10-31T09:54:52.347Z,9.198135
2023-10-31T10:00:04.310Z,8.975021
2023-10-31T10:05:16.334Z,8.857162
2023-10-31T10:10:28.290Z,8.634491
2023-10-31T10:15:40.247Z,8.940857
2023-10-31T10:26:12.470Z,8.911728
2023-10-31T10:31:24.686Z,8.90123
2023-10-31T10:36:36.648Z,9.486267
2023-10-31T10:41:48.637Z,9.377945
2023-10-31T10:47:00.662Z,8.98645
2023-10-31T10:52:12.626Z,9.11438
2023-10-31T10:57:25.248Z,9.21727
2023-10-31T11:02:37.352Z,9.283676
2023-10-31T11:07:49.730Z,8.577301
2023-10-31T11:13:01.790Z,8.614258
2023-10-31T11:18:13.822Z,8.873962
2023-10-31T11:23:25.864Z,8.823105
2023-10-31T11:28:38.131Z,8.482895
2023-10-31T11:33:50.092Z,8.067291
2023-10-31T11:39:02.055Z,8.391815
2023-10-31T11:44:14.071Z,8.209732
2023-10-31T11:49:26.040Z,8.241119
2023-10-31T11:54:38.084Z,7.766342
2023-10-31T11:59:50.684Z,8.155457
2023-10-31T12:05:02.921Z,8.250793
2023-10-31T12:10:14.923Z,7.903992
2023-10-31T12:15:27.516Z,8.70842
2023-10-31T12:20:39.592Z,8.328522
2023-10-31T12:25:51.696Z,8.275436
2023-10-31T12:31:03.923Z,8.106613
2023-10-31T12:36:15.902Z,7.916763
2023-10-31T12:41:27.945Z,7.79097
2023-10-31T12:46:40.370Z,7.952576
2023-10-31T12:51:52.479Z,8.980576
2023-10-31T12:57:04.636Z,8.852646
2023-10-31T13:02:17.116Z,8.979782
2023-10-31T13:07:29.138Z,8.636032
2023-10-31T13:12:41.227Z,8.7285
2023-10-31T13:17:53.218Z,8.537506
2023-10-31T13:23:05.390Z,8.621338
2023-10-31T13:28:17.558Z,8.079773
2023-10-31T13:33:29.640Z,8.499542
2023-10-31T13:38:41.596Z,8.466675
2023-10-31T13:43:53.710Z,8.019089
2023-10-31T13:49:05.734Z,8.203705
2023-10-31T13:54:17.702Z,7.933197
2023-10-31T13:59:33.439Z,8.200806
2023-10-31T14:04:45.682Z,8.497116
2023-10-31T14:09:57.789Z,8.390778
2023-10-31T14:15:09.758Z,8.373154
2023-10-31T14:20:22.337Z,8.283737
2023-10-31T14:25:34.336Z,8.135376
2023-10-31T14:30:46.549Z,7.760666
2023-10-31T14:35:58.568Z,7.873428
2023-10-31T14:41:10.586Z,7.956284
2023-10-31T14:46:23.132Z,8.124222
2023-10-31T14:51:35.259Z,8.074905
2023-10-31T14:56:47.330Z,8.181427
2023-10-31T15:01:59.543Z,8.065872
2023-10-31T15:07:11.765Z,8.253387
2023-10-31T15:12:23.741Z,8.624344
2023-10-31T15:17:35.951Z,8.613586
2023-10-31T15:22:47.962Z,8.639999
2023-10-31T15:27:59.926Z,8.571228
2023-10-31T15:33:11.962Z,8.919052
2023-10-31T15:38:24.310Z,9.08786
2023-10-31T15:43:36.310Z,9.300934
2023-10-31T15:48:48.489Z,9.355255
2023-10-31T15:54:00.478Z,9.142166
2023-10-31T15:59:12.468Z,9.138977
2023-10-31T16:04:24.526Z,9.323868
2023-10-31T16:09:37.148Z,9.237717
2023-10-31T16:14:49.238Z,9.18364
2023-10-31T16:20:01.309Z,9.06485
2023-10-31T16:25:14.076Z,8.778915
2023-10-31T16:30:26.164Z,8.625015
2023-10-31T16:35:38.388Z,8.541168
2023-10-31T16:40:50.385Z,8.675964
2023-10-31T16:46:02.507Z,8.643616
2023-10-31T16:51:14.612Z,8.618423
2023-10-31T16:56:26.597Z,8.597397
2023-10-31T17:01:38.604Z,8.610718
2023-10-31T17:06:50.836Z,8.736359
2023-10-31T17:12:03.739Z,8.570129
2023-10-31T17:17:16.944Z,8.71138
2023-10-31T17:27:41.419Z,8.717545
2023-10-31T17:32:53.514Z,8.759354
2023-10-31T17:38:06.152Z,8.755203
2023-10-31T17:43:18.838Z,8.713821
2023-10-31T17:48:31.619Z,8.665527
2023-10-31T17:53:43.818Z,8.686646
2023-10-31T17:58:56.064Z,8.655548
2023-10-31T18:04:08.149Z,8.597794
2023-10-31T18:09:20.174Z,8.741028
2023-10-31T18:14:32.156Z,8.983337
2023-10-31T18:19:44.271Z,9.237091
2023-10-31T18:24:56.234Z,9.44783
2023-10-31T18:30:14.595Z,9.784775
2023-10-31T18:35:26.626Z,9.902084
2023-10-31T18:40:38.652Z,10.05302
2023-10-31T18:45:50.793Z,10.11354
2023-10-31T18:51:03.316Z,10.21277
2023-10-31T18:56:15.322Z,10.25917
2023-10-31T19:01:27.646Z,10.28491
2023-10-31T19:06:40.057Z,10.27116
2023-10-31T19:11:52.051Z,10.26207
2023-10-31T19:17:04.027Z,10.28098
2023-10-31T19:22:16.005Z,10.23323
2023-10-31T19:27:28.031Z,10.27657
2023-10-31T19:32:55.069Z,10.27353
2023-10-31T19:38:07.238Z,10.34468
2023-10-31T19:43:19.204Z,10.35001
2023-10-31T19:48:33.809Z,10.39055
2023-10-31T19:53:45.833Z,10.37567
2023-10-31T20:04:17.988Z,10.19817
2023-10-31T20:09:30.009Z,10.12601
2023-10-31T20:14:59.569Z,10.07861
2023-10-31T20:20:14.154Z,9.980759
2023-10-31T20:25:26.335Z,9.891022
2023-10-31T20:30:38.326Z,9.698975
2023-10-31T20:35:50.652Z,9.449997
2023-10-31T20:41:02.704Z,9.24704
2023-10-31T20:46:14.679Z,9.136169
2023-10-31T20:51:26.713Z,9.004456
2023-10-31T20:56:38.843Z,9.026245
2023-10-31T21:01:51.128Z,9.034027
2023-10-31T21:07:03.157Z,8.959244
2023-10-31T21:12:15.367Z,8.947098
2023-10-31T21:17:28.400Z,8.926025
2023-10-31T21:22:41.544Z,8.862244
2023-10-31T21:27:53.766Z,8.819168
2023-10-31T21:33:05.888Z,8.715973
2023-10-31T21:38:17.898Z,8.490219
2023-10-31T21:43:29.983Z,8.465775
2023-10-31T21:48:41.973Z,8.335205
2023-10-31T21:53:53.920Z,8.234146
2023-10-31T21:59:06.013Z,8.090363
2023-10-31T22:04:18.084Z,8.128189
2023-10-31T22:09:30.181Z,8.114334
2023-10-31T22:14:42.262Z,8.168869
2023-10-31T22:19:54.240Z,8.175446
2023-10-31T22:25:06.218Z,8.176743
2023-10-31T22:30:18.316Z,8.094818
2023-10-31T22:35:30.422Z,8.042679
2023-10-31T22:40:42.621Z,8.060089
2023-10-31T22:45:55.234Z,8.095978
2023-10-31T22:51:07.228Z,8.194397
2023-10-31T22:56:19.199Z,8.270325
2023-10-31T23:01:31.495Z,8.338547
2023-10-31T23:06:43.624Z,8.38736
2023-10-31T23:11:55.727Z,8.42804
2023-10-31T23:17:07.706Z,8.469986
2023-10-31T23:22:19.697Z,8.493118
2023-10-31T23:27:31.794Z,8.506668
2023-10-31T23:32:43.959Z,8.518768
2023-10-31T23:37:56.105Z,8.477417
2023-10-31T23:43:08.213Z,8.461487
2023-10-31T23:48:20.252Z,8.475006
2023-10-31T23:53:32.261Z,8.454422
2023-10-31T23:58:44.351Z,8.485336
